sensor_id;sensor_type;location;lat;lon;timestamp;pressure;altitude;pressure_sealevel;temperature;humidity
51081;BME280;37130;55.670;37.596;2023-11-22T00:01:23;99483.31;;;-7.90;78.86
51081;BME280;37130;55.670;37.596;2023-11-22T00:03:52;99473.09;;;-7.88;78.65
51081;BME280;37130;55.670;37.596;2023-11-22T00:06:20;99471.44;;;-7.85;78.01
51081;BME280;37130;55.670;37.596;2023-11-22T00:08:48;99467.97;;;-7.87;78.76
51081;BME280;37130;55.670;37.596;2023-11-22T00:11:15;99472.44;;;-7.80;78.47
51081;BME280;37130;55.670;37.596;2023-11-22T00:13:43;99475.06;;;-7.77;78.19
51081;BME280;37130;55.670;37.596;2023-11-22T00:16:10;99472.53;;;-7.75;78.77
51081;BME280;37130;55.670;37.596;2023-11-22T00:18:38;99470.03;;;-7.72;78.45
51081;BME280;37130;55.670;37.596;2023-11-22T00:21:06;99456.22;;;-7.76;77.99
51081;BME280;37130;55.670;37.596;2023-11-22T00:23:34;99416.19;;;-8.02;78.48
51081;BME280;37130;55.670;37.596;2023-11-22T00:26:01;99462.56;;;-7.61;77.96
51081;BME280;37130;55.670;37.596;2023-11-22T00:28:29;99456.50;;;-7.63;78.22
51081;BME280;37130;55.670;37.596;2023-11-22T00:30:57;99437.53;;;-7.70;78.07
51081;BME280;37130;55.670;37.596;2023-11-22T00:33:25;99457.53;;;-7.57;78.15
51081;BME280;37130;55.670;37.596;2023-11-22T00:35:53;99455.84;;;-7.55;78.01
51081;BME280;37130;55.670;37.596;2023-11-22T00:38:24;99463.50;;;-7.58;77.89
51081;BME280;37130;55.670;37.596;2023-11-22T00:40:52;99458.34;;;-7.58;77.96
51081;BME280;37130;55.670;37.596;2023-11-22T00:43:20;99460.91;;;-7.58;77.91
51081;BME280;37130;55.670;37.596;2023-11-22T00:45:47;99411.31;;;-7.91;77.66
51081;BME280;37130;55.670;37.596;2023-11-22T00:48:15;99387.19;;;-7.98;78.20
51081;BME280;37130;55.670;37.596;2023-11-22T00:50:43;99454.97;;;-7.57;77.92
51081;BME280;37130;55.670;37.596;2023-11-22T00:53:10;99457.53;;;-7.57;77.94
51081;BME280;37130;55.670;37.596;2023-11-22T00:55:38;99454.88;;;-7.60;77.91
51081;BME280;37130;55.670;37.596;2023-11-22T00:58:05;99396.75;;;-7.93;78.21
51081;BME280;37130;55.670;37.596;2023-11-22T01:00:34;99413.31;;;-7.78;77.49
51081;BME280;37130;55.670;37.596;2023-11-22T01:03:02;99454.97;;;-7.57;77.92
51081;BME280;37130;55.670;37.596;2023-11-22T01:05:32;99456.69;;;-7.56;77.95
51081;BME280;37130;55.670;37.596;2023-11-22T05:41:21;99512.56;;;-8.83;75.94
51081;BME280;37130;55.670;37.596;2023-11-22T05:43:51;99532.59;;;-8.71;77.28
51081;BME280;37130;55.670;37.596;2023-11-22T05:46:20;99472.00;;;-8.96;78.37
51081;BME280;37130;55.670;37.596;2023-11-22T05:48:52;99532.31;;;-8.50;79.37
51081;BME280;37130;55.670;37.596;2023-11-22T05:51:19;99528.38;;;-8.36;79.98
51081;BME280;37130;55.670;37.596;2023-11-22T05:53:47;99516.78;;;-8.22;80.81
51081;BME280;37130;55.670;37.596;2023-11-22T05:56:15;99488.34;;;-8.28;80.49
51081;BME280;37130;55.670;37.596;2023-11-22T05:58:44;99517.19;;;-8.05;81.17
51081;BME280;37130;55.670;37.596;2023-11-22T06:01:12;99506.09;;;-8.04;81.40
51081;BME280;37130;55.670;37.596;2023-11-22T06:03:40;99526.16;;;-7.89;81.27
51081;BME280;37130;55.670;37.596;2023-11-22T06:06:07;99514.03;;;-7.95;81.35
51081;BME280;37130;55.670;37.596;2023-11-22T06:08:35;99522.19;;;-7.78;81.62
51081;BME280;37130;55.670;37.596;2023-11-22T06:11:03;99506.59;;;-7.84;81.06
51081;BME280;37130;55.670;37.596;2023-11-22T06:13:31;99530.81;;;-7.74;81.49
51081;BME280;37130;55.670;37.596;2023-11-22T06:15:59;99531.72;;;-7.72;81.45
51081;BME280;37130;55.670;37.596;2023-11-22T06:18:26;99464.03;;;-8.09;80.87
51081;BME280;37130;55.670;37.596;2023-11-22T06:20:57;99525.81;;;-7.68;80.64
51081;BME280;37130;55.670;37.596;2023-11-22T06:23:24;99518.94;;;-7.69;81.00
51081;BME280;37130;55.670;37.596;2023-11-22T06:25:52;99522.56;;;-7.61;80.87
51081;BME280;37130;55.670;37.596;2023-11-22T06:28:19;99526.97;;;-7.55;80.77
51081;BME280;37130;55.670;37.596;2023-11-22T06:30:47;99506.22;;;-7.64;80.77
51081;BME280;37130;55.670;37.596;2023-11-22T06:33:14;99526.25;;;-7.50;80.64
51081;BME280;37130;55.670;37.596;2023-11-22T06:35:42;99528.81;;;-7.51;80.41
51081;BME280;37130;55.670;37.596;2023-11-22T06:38:10;99517.59;;;-7.53;80.35
51081;BME280;37130;55.670;37.596;2023-11-22T06:40:38;99527.97;;;-7.50;79.81
51081;BME280;37130;55.670;37.596;2023-11-22T06:43:05;99530.69;;;-7.44;80.02
51081;BME280;37130;55.670;37.596;2023-11-22T06:45:34;99528.03;;;-7.47;79.85
51081;BME280;37130;55.670;37.596;2023-11-22T06:48:02;99528.81;;;-7.51;80.20
51081;BME280;37130;55.670;37.596;2023-11-22T06:50:30;99544.38;;;-7.45;80.26
51081;BME280;37130;55.670;37.596;2023-11-22T06:52:58;99538.50;;;-7.39;79.28
51081;BME280;37130;55.670;37.596;2023-11-22T06:55:25;99538.50;;;-7.39;79.86
51081;BME280;37130;55.670;37.596;2023-11-22T06:57:54;99537.69;;;-7.38;79.78
51081;BME280;37130;55.670;37.596;2023-11-22T07:00:22;99548.81;;;-7.38;79.38
51081;BME280;37130;55.670;37.596;2023-11-22T07:02:49;99547.88;;;-7.41;79.46
51081;BME280;37130;55.670;37.596;2023-11-22T07:05:17;99550.44;;;-7.41;79.22
51081;BME280;37130;55.670;37.596;2023-11-22T07:07:46;99539.44;;;-7.36;79.12
51081;BME280;37130;55.670;37.596;2023-11-22T07:10:15;99557.69;;;-7.25;79.12
51081;BME280;37130;55.670;37.596;2023-11-22T07:12:44;99503.03;;;-7.54;78.84
51081;BME280;37130;55.670;37.596;2023-11-22T07:15:11;99564.69;;;-7.18;78.61
51081;BME280;37130;55.670;37.596;2023-11-22T07:17:39;99548.34;;;-7.21;79.32
51081;BME280;37130;55.670;37.596;2023-11-22T07:20:07;99559.81;;;-7.07;78.58
51081;BME280;37130;55.670;37.596;2023-11-22T07:22:37;99518.03;;;-7.35;78.40
51081;BME280;37130;55.670;37.596;2023-11-22T07:25:05;99566.47;;;-7.15;78.01
51081;BME280;37130;55.670;37.596;2023-11-22T07:27:34;99564.56;;;-7.24;78.11
51081;BME280;37130;55.670;37.596;2023-11-22T07:30:02;99567.19;;;-7.22;78.34
51081;BME280;37130;55.670;37.596;2023-11-22T07:32:32;99570.56;;;-7.25;78.30
51081;BME280;37130;55.670;37.596;2023-11-22T07:35:02;99573.25;;;-7.19;78.79
51081;BME280;37130;55.670;37.596;2023-11-22T07:37:30;99570.13;;;-7.06;78.83
51081;BME280;37130;55.670;37.596;2023-11-22T07:39:59;99561.53;;;-6.67;79.33
51081;BME280;37130;55.670;37.596;2023-11-22T07:42:26;99561.13;;;-5.99;78.82
51081;BME280;37130;55.670;37.596;2023-11-22T07:44:54;99552.66;;;-5.38;79.78
51081;BME280;37130;55.670;37.596;2023-11-22T07:47:23;99555.50;;;-4.56;78.06
51081;BME280;37130;55.670;37.596;2023-11-22T07:49:52;99552.84;;;-3.86;76.83
51081;BME280;37130;55.670;37.596;2023-11-22T07:52:19;99500.56;;;-3.48;74.86
51081;BME280;37130;55.670;37.596;2023-11-22T07:54:47;99530.19;;;-3.01;73.60
51081;BME280;37130;55.670;37.596;2023-11-22T07:57:14;99546.66;;;-2.89;72.82
51081;BME280;37130;55.670;37.596;2023-11-22T07:59:42;99553.47;;;-3.04;72.96
51081;BME280;37130;55.670;37.596;2023-11-22T08:02:09;99564.50;;;-3.35;72.94
51081;BME280;37130;55.670;37.596;2023-11-22T08:04:39;99563.38;;;-3.64;73.41
51081;BME280;37130;55.670;37.596;2023-11-22T08:07:07;99515.69;;;-3.94;73.54
51081;BME280;37130;55.670;37.596;2023-11-22T08:09:35;99511.41;;;-3.89;73.10
51081;BME280;37130;55.670;37.596;2023-11-22T08:12:03;99520.78;;;-4.03;73.16
51081;BME280;37130;55.670;37.596;2023-11-22T08:14:33;99552.97;;;-3.70;73.04
51081;BME280;37130;55.670;37.596;2023-11-22T08:17:00;99439.44;;;-4.37;72.73
51081;BME280;37130;55.670;37.596;2023-11-22T08:19:29;99476.69;;;-4.14;72.78
51081;BME280;37130;55.670;37.596;2023-11-22T08:21:57;99542.50;;;-3.84;72.71
51081;BME280;37130;55.670;37.596;2023-11-22T08:24:24;99544.19;;;-3.88;73.26
51081;BME280;37130;55.670;37.596;2023-11-22T08:26:52;99484.13;;;-4.48;72.75
51081;BME280;37130;55.670;37.596;2023-11-22T08:29:20;99552.47;;;-4.21;73.27
51081;BME280;37130;55.670;37.596;2023-11-22T08:31:48;99548.06;;;-4.31;72.63
51081;BME280;37130;55.670;37.596;2023-11-22T08:34:17;99553.19;;;-4.34;72.47
51081;BME280;37130;55.670;37.596;2023-11-22T08:36:45;99550.72;;;-4.22;72.20
51081;BME280;37130;55.670;37.596;2023-11-22T08:39:13;99541.34;;;-4.15;72.18
51081;BME280;37130;55.670;37.596;2023-11-22T08:41:40;99542.22;;;-4.12;72.01
51081;BME280;37130;55.670;37.596;2023-11-22T08:44:07;99543.91;;;-4.15;71.85
51081;BME280;37130;55.670;37.596;2023-11-22T08:46:36;99549.19;;;-4.06;71.28
51081;BME280;37130;55.670;37.596;2023-11-22T08:49:04;99542.38;;;-3.98;71.60
51081;BME280;37130;55.670;37.596;2023-11-22T08:51:33;99499.97;;;-4.14;71.84
51081;BME280;37130;55.670;37.596;2023-11-22T08:54:01;99537.34;;;-3.81;71.44
51081;BME280;37130;55.670;37.596;2023-11-22T08:56:29;99533.75;;;-3.97;70.75
51081;BME280;37130;55.670;37.596;2023-11-22T08:58:57;99498.88;;;-4.36;71.26
51081;BME280;37130;55.670;37.596;2023-11-22T09:01:24;99478.97;;;-4.48;70.40
51081;BME280;37130;55.670;37.596;2023-11-22T09:03:53;99540.50;;;-4.13;70.54
51081;BME280;37130;55.670;37.596;2023-11-22T09:06:20;99454.53;;;-4.74;70.55
51081;BME280;37130;55.670;37.596;2023-11-22T09:08:48;99488.59;;;-4.30;70.40
51081;BME280;37130;55.670;37.596;2023-11-22T09:11:17;99529.63;;;-3.75;70.64
51081;BME280;37130;55.670;37.596;2023-11-22T09:13:47;99524.63;;;-3.57;70.44
51081;BME280;37130;55.670;37.596;2023-11-22T09:16:17;99510.94;;;-3.42;69.05
51081;BME280;37130;55.670;37.596;2023-11-22T09:18:47;99528.31;;;-3.25;69.03
51081;BME280;37130;55.670;37.596;2023-11-22T09:21:14;99514.44;;;-3.34;69.08
51081;BME280;37130;55.670;37.596;2023-11-22T09:23:44;99513.66;;;-3.23;68.64
51081;BME280;37130;55.670;37.596;2023-11-22T09:26:11;99457.28;;;-3.63;68.02
51081;BME280;37130;55.670;37.596;2023-11-22T09:28:39;99498.69;;;-3.66;68.49
51081;BME280;37130;55.670;37.596;2023-11-22T09:31:08;99522.13;;;-3.47;68.46
51081;BME280;37130;55.670;37.596;2023-11-22T09:33:38;99466.78;;;-3.62;68.91
51081;BME280;37130;55.670;37.596;2023-11-22T09:36:07;99536.13;;;-3.19;68.28
51081;BME280;37130;55.670;37.596;2023-11-22T09:38:37;99483.25;;;-3.49;68.34
51081;BME280;37130;55.670;37.596;2023-11-22T09:41:05;99531.84;;;-3.14;67.51
51081;BME280;37130;55.670;37.596;2023-11-22T09:43:35;99416.38;;;-4.11;67.89
51081;BME280;37130;55.670;37.596;2023-11-22T09:46:03;99528.13;;;-3.53;68.30
51081;BME280;37130;55.670;37.596;2023-11-22T09:48:32;99532.38;;;-3.61;68.54
51081;BME280;37130;55.670;37.596;2023-11-22T09:51:21;99541.88;;;-3.57;68.10
51081;BME280;37130;55.670;37.596;2023-11-22T09:53:57;99552.16;;;-3.66;68.40
51081;BME280;37130;55.670;37.596;2023-11-22T09:56:32;99552.13;;;-3.69;68.19
51081;BME280;37130;55.670;37.596;2023-11-22T09:59:03;99488.84;;;-4.08;68.02
51081;BME280;37130;55.670;37.596;2023-11-22T10:01:31;99540.91;;;-3.67;68.24
51081;BME280;37130;55.670;37.596;2023-11-22T10:04:01;99538.34;;;-3.68;67.99
51081;BME280;37130;55.670;37.596;2023-11-22T10:06:29;99544.34;;;-3.74;68.31
51081;BME280;37130;55.670;37.596;2023-11-22T10:09:02;99539.94;;;-3.84;68.03
51081;BME280;37130;55.670;37.596;2023-11-22T10:11:36;99541.66;;;-3.83;68.51
51081;BME280;37130;55.670;37.596;2023-11-22T10:14:06;99532.09;;;-3.90;68.08
51081;BME280;37130;55.670;37.596;2023-11-22T10:16:34;99534.72;;;-3.86;68.46
51081;BME280;37130;55.670;37.596;2023-11-22T10:19:03;99519.97;;;-3.96;68.38
51081;BME280;37130;55.670;37.596;2023-11-22T10:21:34;99507.91;;;-3.94;67.65
51081;BME280;37130;55.670;37.596;2023-11-22T10:24:02;99532.22;;;-3.78;67.66
51081;BME280;37130;55.670;37.596;2023-11-22T10:26:31;99536.41;;;-3.88;67.52
51081;BME280;37130;55.670;37.596;2023-11-22T10:29:00;99453.84;;;-4.59;67.76
51081;BME280;37130;55.670;37.596;2023-11-22T10:31:27;99466.94;;;-4.41;67.58
51081;BME280;37130;55.670;37.596;2023-11-22T10:33:55;99545.88;;;-3.91;67.66
51081;BME280;37130;55.670;37.596;2023-11-22T10:36:26;99505.19;;;-4.11;67.81
51081;BME280;37130;55.670;37.596;2023-11-22T10:38:54;99536.31;;;-4.03;67.10
51081;BME280;37130;55.670;37.596;2023-11-22T10:41:22;99531.03;;;-4.12;67.67
51081;BME280;37130;55.670;37.596;2023-11-22T10:43:53;99530.09;;;-4.18;67.32
51081;BME280;37130;55.670;37.596;2023-11-22T10:46:28;99540.44;;;-4.18;68.08
51081;BME280;37130;55.670;37.596;2023-11-22T10:48:57;99535.16;;;-4.28;67.67
51081;BME280;37130;55.670;37.596;2023-11-22T10:51:30;99535.81;;;-4.46;67.80
51081;BME280;37130;55.670;37.596;2023-11-22T10:53:59;99535.75;;;-4.52;67.74
51081;BME280;37130;55.670;37.596;2023-11-22T10:56:28;99524.44;;;-4.64;68.10
51081;BME280;37130;55.670;37.596;2023-11-22T10:59:02;99542.53;;;-4.64;67.83
51081;BME280;37130;55.670;37.596;2023-11-22T11:01:35;99533.84;;;-4.69;67.65
51081;BME280;37130;55.670;37.596;2023-11-22T11:04:09;99539.81;;;-4.73;68.15
51081;BME280;37130;55.670;37.596;2023-11-22T11:06:40;99532.78;;;-4.85;67.88
51081;BME280;37130;55.670;37.596;2023-11-22T11:09:10;99532.78;;;-4.85;68.87
51081;BME280;37130;55.670;37.596;2023-11-22T11:11:38;99526.81;;;-4.79;68.87
51081;BME280;37130;55.670;37.596;2023-11-22T11:14:09;99484.31;;;-5.05;68.97
51081;BME280;37130;55.670;37.596;2023-11-22T11:16:39;99507.84;;;-4.81;68.58
51081;BME280;37130;55.670;37.596;2023-11-22T11:19:16;99443.66;;;-5.19;68.01
51081;BME280;37130;55.670;37.596;2023-11-22T11:21:47;99447.09;;;-5.20;68.53
51081;BME280;37130;55.670;37.596;2023-11-22T11:24:15;99517.34;;;-4.77;68.87
51081;BME280;37130;55.670;37.596;2023-11-22T11:26:48;99456.50;;;-5.26;68.09
51081;BME280;37130;55.670;37.596;2023-11-22T11:29:34;99418.19;;;-5.58;68.33
51081;BME280;37130;55.670;37.596;2023-11-22T11:32:10;99524.00;;;-4.97;68.32
51081;BME280;37130;55.670;37.596;2023-11-22T11:34:47;99520.34;;;-5.12;69.28
51081;BME280;37130;55.670;37.596;2023-11-22T11:37:18;99523.72;;;-5.17;69.23
51081;BME280;37130;55.670;37.596;2023-11-22T11:39:47;99510.88;;;-5.13;68.72
51081;BME280;37130;55.670;37.596;2023-11-22T11:42:16;99511.66;;;-5.18;68.66
51081;BME280;37130;55.670;37.596;2023-11-22T11:47:31;99515.78;;;-5.31;69.80
51081;BME280;37130;55.670;37.596;2023-11-22T11:49:59;99444.53;;;-5.79;69.77
51081;BME280;37130;55.670;37.596;2023-11-22T11:52:30;99507.03;;;-5.41;69.99
51081;BME280;37130;55.670;37.596;2023-11-22T11:55:01;99511.28;;;-5.44;69.53
51081;BME280;37130;55.670;37.596;2023-11-22T11:57:33;99498.03;;;-5.66;69.45
51081;BME280;37130;55.670;37.596;2023-11-22T12:00:00;99482.50;;;-5.70;70.12
51081;BME280;37130;55.670;37.596;2023-11-22T12:02:37;99520.41;;;-5.63;69.65
51081;BME280;37130;55.670;37.596;2023-11-22T12:05:06;99517.91;;;-5.60;69.36
51081;BME280;37130;55.670;37.596;2023-11-22T12:07:37;99515.16;;;-5.71;70.40
51081;BME280;37130;55.670;37.596;2023-11-22T12:10:05;99517.75;;;-5.71;70.29
51081;BME280;37130;55.670;37.596;2023-11-22T12:12:34;99525.44;;;-5.73;69.37
51081;BME280;37130;55.670;37.596;2023-11-22T12:15:02;99524.41;;;-5.84;69.69
51081;BME280;37130;55.670;37.596;2023-11-22T12:17:31;99524.22;;;-5.96;70.39
51081;BME280;37130;55.670;37.596;2023-11-22T12:20:10;99535.25;;;-6.05;70.51
51081;BME280;37130;55.670;37.596;2023-11-22T12:22:38;99529.09;;;-6.11;70.42
51081;BME280;37130;55.670;37.596;2023-11-22T12:25:08;99537.44;;;-6.25;70.44
51081;BME280;37130;55.670;37.596;2023-11-22T12:27:44;99487.84;;;-6.60;71.18
51081;BME280;37130;55.670;37.596;2023-11-22T12:30:33;99523.31;;;-6.47;70.96
51081;BME280;37130;55.670;37.596;2023-11-22T12:33:04;99546.06;;;-6.24;71.58
51081;BME280;37130;55.670;37.596;2023-11-22T12:35:34;99555.59;;;-6.20;70.57
51081;BME280;37130;55.670;37.596;2023-11-22T12:38:04;99550.44;;;-6.19;71.58
51081;BME280;37130;55.670;37.596;2023-11-22T12:40:34;99553.03;;;-6.19;71.31
51081;BME280;37130;55.670;37.596;2023-11-22T12:43:03;99471.34;;;-6.70;71.33
51081;BME280;37130;55.670;37.596;2023-11-22T12:45:31;99481.59;;;-6.73;71.58
51081;BME280;37130;55.670;37.596;2023-11-22T12:48:22;99555.19;;;-6.42;70.94
51081;BME280;37130;55.670;37.596;2023-11-22T12:50:52;99490.88;;;-6.81;71.01
51081;BME280;37130;55.670;37.596;2023-11-22T12:53:22;99562.97;;;-6.37;70.96
51081;BME280;37130;55.670;37.596;2023-11-22T12:55:52;99575.78;;;-6.42;71.13
51081;BME280;37130;55.670;37.596;2023-11-22T12:58:24;99568.78;;;-6.49;71.15
51081;BME280;37130;55.670;37.596;2023-11-22T13:00:53;99572.06;;;-6.56;71.97
51081;BME280;37130;55.670;37.596;2023-11-22T13:03:28;99577.91;;;-6.65;71.23
51081;BME280;37130;55.670;37.596;2023-11-22T13:05:57;99571.63;;;-6.76;72.00
51081;BME280;37130;55.670;37.596;2023-11-22T13:08:25;99552.28;;;-6.99;71.46
51081;BME280;37130;55.670;37.596;2023-11-22T13:10:57;99587.53;;;-6.95;71.73
51081;BME280;37130;55.670;37.596;2023-11-22T13:13:27;99569.16;;;-7.11;71.67
51081;BME280;37130;55.670;37.596;2023-11-22T13:15:55;99488.09;;;-7.69;72.57
51081;BME280;37130;55.670;37.596;2023-11-22T13:18:22;99526.28;;;-7.48;72.70
51081;BME280;37130;55.670;37.596;2023-11-22T13:20:50;99556.72;;;-7.30;72.20
51081;BME280;37130;55.670;37.596;2023-11-22T13:23:18;99582.63;;;-7.22;72.50
51081;BME280;37130;55.670;37.596;2023-11-22T13:25:45;99579.00;;;-7.31;72.12
51081;BME280;37130;55.670;37.596;2023-11-22T13:28:13;99592.56;;;-7.38;72.06
51081;BME280;37130;55.670;37.596;2023-11-22T13:30:44;99575.03;;;-7.54;72.18
51081;BME280;37130;55.670;37.596;2023-11-22T13:33:11;99573.25;;;-7.55;72.23
51081;BME280;37130;55.670;37.596;2023-11-22T13:35:40;99580.72;;;-7.66;72.70
51081;BME280;37130;55.670;37.596;2023-11-22T13:38:08;99572.94;;;-7.69;72.49
51081;BME280;37130;55.670;37.596;2023-11-22T13:40:40;99439.13;;;-8.46;72.56
51081;BME280;37130;55.670;37.596;2023-11-22T13:43:08;99590.28;;;-7.60;72.30
51081;BME280;37130;55.670;37.596;2023-11-22T13:45:36;99519.94;;;-7.99;72.31
51081;BME280;37130;55.670;37.596;2023-11-22T13:48:07;99576.63;;;-7.59;72.34
51081;BME280;37130;55.670;37.596;2023-11-22T13:50:37;99581.81;;;-7.56;72.49
51081;BME280;37130;55.670;37.596;2023-11-22T13:53:04;99508.69;;;-8.04;71.99
51081;BME280;37130;55.670;37.596;2023-11-22T13:55:32;99574.09;;;-7.56;72.38
51081;BME280;37130;55.670;37.596;2023-11-22T13:58:00;99567.25;;;-7.56;72.37
51081;BME280;37130;55.670;37.596;2023-11-22T14:00:29;99574.84;;;-7.62;72.89
51081;BME280;37130;55.670;37.596;2023-11-22T14:03:04;99572.28;;;-7.60;72.34
51081;BME280;37130;55.670;37.596;2023-11-22T14:05:38;99572.41;;;-7.56;72.36
51081;BME280;37130;55.670;37.596;2023-11-22T14:08:07;99575.88;;;-7.54;72.40
51081;BME280;37130;55.670;37.596;2023-11-22T14:10:34;99570.75;;;-7.54;72.63
51081;BME280;37130;55.670;37.596;2023-11-22T14:13:02;99572.34;;;-7.59;71.87
51081;BME280;37130;55.670;37.596;2023-11-22T14:15:31;99574.00;;;-7.61;72.11
51081;BME280;37130;55.670;37.596;2023-11-22T14:17:59;99573.94;;;-7.62;72.18
51081;BME280;37130;55.670;37.596;2023-11-22T14:20:27;99560.06;;;-7.69;71.92
51081;BME280;37130;55.670;37.596;2023-11-22T14:22:57;99564.63;;;-7.59;72.13
51081;BME280;37130;55.670;37.596;2023-11-22T14:25:24;99572.25;;;-7.62;72.89
51081;BME280;37130;55.670;37.596;2023-11-22T14:27:53;99544.41;;;-7.78;72.28
51081;BME280;37130;55.670;37.596;2023-11-22T14:30:23;99521.75;;;-7.95;71.91
51081;BME280;37130;55.670;37.596;2023-11-22T14:32:52;99574.00;;;-7.61;72.33
51081;BME280;37130;55.670;37.596;2023-11-22T14:35:20;99576.50;;;-7.62;72.46
51081;BME280;37130;55.670;37.596;2023-11-22T14:37:48;99571.22;;;-7.68;72.30
51081;BME280;37130;55.670;37.596;2023-11-22T14:40:16;99506.72;;;-8.12;71.91
51081;BME280;37130;55.670;37.596;2023-11-22T14:42:47;99552.66;;;-7.91;72.37
51081;BME280;37130;55.670;37.596;2023-11-22T14:45:20;99584.00;;;-7.72;72.62
51081;BME280;37130;55.670;37.596;2023-11-22T14:47:47;99532.53;;;-8.09;71.76
51081;BME280;37130;55.670;37.596;2023-11-22T14:50:18;99579.59;;;-7.76;72.52
51081;BME280;37130;55.670;37.596;2023-11-22T14:52:47;99582.16;;;-7.77;72.54
51081;BME280;37130;55.670;37.596;2023-11-22T14:55:18;99579.66;;;-7.74;72.08
51081;BME280;37130;55.670;37.596;2023-11-22T14:57:51;99535.91;;;-8.10;72.58
51081;BME280;37130;55.670;37.596;2023-11-22T15:00:21;99593.31;;;-7.77;72.31
51081;BME280;37130;55.670;37.596;2023-11-22T15:02:48;99588.75;;;-7.87;72.49
51081;BME280;37130;55.670;37.596;2023-11-22T15:05:24;99581.50;;;-8.02;71.69
51081;BME280;37130;55.670;37.596;2023-11-22T15:07:54;99584.06;;;-8.03;71.79
51081;BME280;37130;55.670;37.596;2023-11-22T15:10:22;99583.06;;;-8.08;72.15
51081;BME280;37130;55.670;37.596;2023-11-22T15:12:50;99585.22;;;-8.24;72.15
51081;BME280;37130;55.670;37.596;2023-11-22T15:15:18;99599.00;;;-8.20;72.09
51081;BME280;37130;55.670;37.596;2023-11-22T15:17:46;99577.59;;;-8.21;72.52
51081;BME280;37130;55.670;37.596;2023-11-22T15:20:14;99574.44;;;-8.10;72.06
51081;BME280;37130;55.670;37.596;2023-11-22T15:22:43;99591.13;;;-7.95;72.45
51081;BME280;37130;55.670;37.596;2023-11-22T15:25:11;99593.16;;;-7.83;72.52
51081;BME280;37130;55.670;37.596;2023-11-22T15:27:38;99583.09;;;-7.74;72.16
51081;BME280;37130;55.670;37.596;2023-11-22T15:30:07;99582.38;;;-7.68;71.97
51081;BME280;37130;55.670;37.596;2023-11-22T15:32:35;99588.47;;;-7.64;71.88
51081;BME280;37130;55.670;37.596;2023-11-22T15:35:03;99586.78;;;-7.62;71.72
51081;BME280;37130;55.670;37.596;2023-11-22T15:37:32;99592.84;;;-7.60;72.00
51081;BME280;37130;55.670;37.596;2023-11-22T15:40:00;99585.19;;;-7.59;72.12
51081;BME280;37130;55.670;37.596;2023-11-22T15:42:30;99582.69;;;-7.56;71.58
51081;BME280;37130;55.670;37.596;2023-11-22T15:44:58;99525.22;;;-7.93;71.80
51081;BME280;37130;55.670;37.596;2023-11-22T15:47:25;99510.53;;;-7.98;72.32
51081;BME280;37130;55.670;37.596;2023-11-22T15:49:54;99588.88;;;-7.49;71.94
51081;BME280;37130;55.670;37.596;2023-11-22T15:52:24;99538.59;;;-7.73;71.86
51081;BME280;37130;55.670;37.596;2023-11-22T15:54:53;99585.69;;;-7.37;71.97
51081;BME280;37130;55.670;37.596;2023-11-22T15:57:21;99568.34;;;-7.46;71.53
51081;BME280;37130;55.670;37.596;2023-11-22T15:59:49;99581.22;;;-7.44;71.96
51081;BME280;37130;55.670;37.596;2023-11-22T16:02:17;99576.81;;;-7.50;71.76
51081;BME280;37130;55.670;37.596;2023-11-22T16:04:45;99571.69;;;-7.50;72.82
51081;BME280;37130;55.670;37.596;2023-11-22T16:07:13;99575.03;;;-7.54;72.63
51081;BME280;37130;55.670;37.596;2023-11-22T16:09:40;99573.25;;;-7.55;72.17
51081;BME280;37130;55.670;37.596;2023-11-22T16:12:10;99567.13;;;-7.62;72.27
51081;BME280;37130;55.670;37.596;2023-11-22T16:14:38;99549.72;;;-7.72;72.50
51081;BME280;37130;55.670;37.596;2023-11-22T16:17:06;99560.22;;;-7.63;72.27
51081;BME280;37130;55.670;37.596;2023-11-22T16:19:34;99529.09;;;-7.75;72.58
51081;BME280;37130;55.670;37.596;2023-11-22T16:22:01;99537.78;;;-7.70;72.48
51081;BME280;37130;55.670;37.596;2023-11-22T16:24:29;99564.81;;;-7.51;72.57
51081;BME280;37130;55.670;37.596;2023-11-22T16:26:56;99566.47;;;-7.53;72.61
51081;BME280;37130;55.670;37.596;2023-11-22T16:29:24;99575.03;;;-7.53;73.15
51081;BME280;37130;55.670;37.596;2023-11-22T16:31:51;99498.81;;;-7.87;73.01
51081;BME280;37130;55.670;37.596;2023-11-22T16:34:19;99495.50;;;-7.83;73.15
51081;BME280;37130;55.670;37.596;2023-11-22T16:36:49;99457.75;;;-7.84;73.31
51081;BME280;37130;55.670;37.596;2023-11-22T16:39:17;99556.97;;;-7.19;72.94
51081;BME280;37130;55.670;37.596;2023-11-22T16:41:56;99563.22;;;-7.08;73.25
51081;BME280;37130;55.670;37.596;2023-11-22T21:34:07;99326.22;;;-8.05;71.58
51081;BME280;37130;55.670;37.596;2023-11-22T21:36:35;99404.28;;;-7.61;73.02
51081;BME280;37130;55.670;37.596;2023-11-22T21:39:06;99401.88;;;-7.53;74.70
51081;BME280;37130;55.670;37.596;2023-11-22T21:41:47;99396.69;;;-7.56;75.09
51081;BME280;37130;55.670;37.596;2023-11-22T21:44:16;99402.63;;;-7.59;75.69
51081;BME280;37130;55.670;37.596;2023-11-22T21:46:45;99329.81;;;-7.99;76.13
51081;BME280;37130;55.670;37.596;2023-11-22T21:49:12;99401.34;;;-7.38;76.34
51081;BME280;37130;55.670;37.596;2023-11-22T21:51:40;99389.50;;;-7.30;76.08
51081;BME280;37130;55.670;37.596;2023-11-22T21:54:09;99400.88;;;-7.20;76.33
51081;BME280;37130;55.670;37.596;2023-11-22T21:56:41;99402.69;;;-7.13;76.48
51081;BME280;37130;55.670;37.596;2023-11-22T21:59:10;99404.53;;;-7.08;76.06
51081;BME280;37130;55.670;37.596;2023-11-22T22:01:37;99390.63;;;-7.17;75.93
51081;BME280;37130;55.670;37.596;2023-11-22T22:04:06;99400.22;;;-7.09;76.23
51081;BME280;37130;55.670;37.596;2023-11-22T22:06:37;99405.38;;;-7.09;76.19
51081;BME280;37130;55.670;37.596;2023-11-22T22:09:04;99402.75;;;-7.10;76.12
51081;BME280;37130;55.670;37.596;2023-11-22T22:11:34;99396.81;;;-7.08;76.06
51081;BME280;37130;55.670;37.596;2023-11-22T22:14:02;99396.84;;;-7.06;75.64
51081;BME280;37130;55.670;37.596;2023-11-22T22:16:30;99382.13;;;-7.13;75.19
51081;BME280;37130;55.670;37.596;2023-11-22T22:18:57;99390.00;;;-7.06;75.30
51081;BME280;37130;55.670;37.596;2023-11-22T22:21:25;99370.16;;;-7.11;74.83
51081;BME280;37130;55.670;37.596;2023-11-22T22:23:53;99387.56;;;-6.99;75.21
51081;BME280;37130;55.670;37.596;2023-11-22T22:26:20;99385.03;;;-6.96;74.88